Blackwell, United Kingdom
Current Conditions -  °F | °C
As of 10:20 AM on Saturday 22 Nov 2014 (Local Time) from EGNX Reporting Station
Light Rain Light Rain  
Wind Chill: 55°   Ceiling: 3400
Heat Index: 55°   Visibility: 3mi
Dew Point: 54°   Wind: 14mph
Humidity: 94%   Direction: 190°S
Pressure: 29.85"   Gusts: NA
Location:  53.12°N, 1.33°W
Report Text: EGNX 221020Z 19012KT 5000 -RA SCT024 BKN034 13/12 Q1011
Loading
Personal Weather Stations






























Interactive Weather Map New forecast layout! Learn more

10-Day Weather Forecast

Advertisements
Track Severe Weather on mobile